Time;durP1;ratioP1;P1;durP2;ratioP2;P2;SDS_P1;SDS_P2;PMS_P1;PMS_P2;Temp;Humidity;BMP_temperature;BMP_pressure;BME280_temperature;BME280_humidity;BME280_pressure;Samples;Min_cycle;Max_cycle;Signal;HPM_P1;HPM_P2
2022/05/13 00:02:07;;;;;;;0.40;0.40;;;10.60;99.90;;;;;;5075405;28;20042;-76
2022/05/13 00:04:33;;;;;;;0.80;0.80;;;10.50;99.90;;;;;;5075242;28;20037;-76
2022/05/13 00:06:59;;;;;;;0.40;0.40;;;10.50;99.90;;;;;;5074789;28;20048;-77
2022/05/13 00:09:56;;;;;;;0.40;0.40;;;10.50;99.90;;;;;;5075187;28;20072;-77
2022/05/13 00:12:11;;;;;;;0.40;0.40;;;10.40;99.90;;;;;;5075554;28;20049;-77
2022/05/13 00:14:37;;;;;;;0.40;0.40;;;10.40;99.90;;;;;;5075137;28;20045;-77
2022/05/13 00:17:03;;;;;;;0.40;0.40;;;10.40;99.90;;;;;;5074975;28;20047;-77
2022/05/13 00:19:28;;;;;;;0.30;0.30;;;10.40;99.90;;;;;;5075041;28;20063;-76
2022/05/13 00:21:54;;;;;;;0.40;0.40;;;10.40;99.90;;;;;;5073678;28;20469;-76
2022/05/13 00:24:19;;;;;;;17.15;0.93;;;10.40;99.90;;;;;;5074974;28;20090;-76
2022/05/13 00:26:45;;;;;;;0.30;0.30;;;10.30;99.90;;;;;;5075252;28;20051;-76
2022/05/13 00:29:10;;;;;;;0.40;0.40;;;10.30;99.90;;;;;;5074276;28;20048;-77
2022/05/13 00:31:36;;;;;;;0.40;0.40;;;10.30;99.90;;;;;;5074812;28;20052;-77
2022/05/13 00:34:02;;;;;;;0.40;0.40;;;10.30;99.90;;;;;;5074772;28;20052;-77
2022/05/13 00:36:27;;;;;;;0.40;0.40;;;10.20;99.90;;;;;;5074456;28;20041;-76
2022/05/13 00:38:53;;;;;;;0.30;0.30;;;10.20;99.90;;;;;;5074661;28;20501;-77
2022/05/13 00:41:18;;;;;;;0.40;0.40;;;10.20;99.90;;;;;;5074806;28;20480;-77
2022/05/13 00:43:46;;;;;;;0.40;0.40;;;10.20;99.90;;;;;;5074662;28;20468;-77
2022/05/13 00:46:11;;;;;;;0.40;0.40;;;10.20;99.90;;;;;;5073987;28;20559;-77
2022/05/13 00:48:37;;;;;;;0.40;0.40;;;10.20;99.90;;;;;;5074456;28;20139;-77
2022/05/13 00:51:05;;;;;;;0.40;0.40;;;10.20;99.90;;;;;;5074017;28;20063;-77
2022/05/13 00:53:33;;;;;;;0.90;0.75;;;10.20;99.90;;;;;;5074311;28;20091;-77
2022/05/13 00:56:00;;;;;;;0.40;0.40;;;10.30;99.90;;;;;;5074595;28;20128;-77
2022/05/13 00:58:26;;;;;;;0.70;0.70;;;10.30;99.90;;;;;;5074079;28;20453;-77
2022/05/13 01:00:52;;;;;;;0.38;0.38;;;10.30;99.90;;;;;;5074255;28;20097;-77
2022/05/13 01:03:18;;;;;;;0.40;0.40;;;10.40;99.90;;;;;;5074195;28;20056;-77
2022/05/13 01:05:49;;;;;;;0.40;0.40;;;10.40;99.90;;;;;;5073415;28;20044;-77
2022/05/13 01:08:15;;;;;;;0.40;0.40;;;10.40;99.90;;;;;;5074183;28;20407;-77
2022/05/13 01:10:44;;;;;;;0.40;0.40;;;10.50;99.90;;;;;;5074184;28;20127;-77
2022/05/13 01:13:15;;;;;;;0.52;0.50;;;10.60;99.90;;;;;;5074556;28;20044;-76
2022/05/13 01:15:42;;;;;;;0.45;0.45;;;10.60;99.90;;;;;;5074137;28;20041;-76
2022/05/13 01:18:10;;;;;;;0.40;0.40;;;10.60;99.90;;;;;;5073691;28;20575;-77
2022/05/13 01:20:37;;;;;;;0.40;0.40;;;10.70;99.90;;;;;;5073799;28;20052;-76
2022/05/13 01:23:09;;;;;;;0.30;0.30;;;10.80;99.90;;;;;;5073889;28;20049;-76
2022/05/13 01:25:40;;;;;;;0.40;0.40;;;10.80;99.90;;;;;;5073738;28;20473;-77
2022/05/13 01:28:10;;;;;;;0.40;0.40;;;10.90;99.90;;;;;;5073674;28;20469;-76
2022/05/13 01:30:41;;;;;;;0.40;0.40;;;10.90;99.90;;;;;;5073819;28;20131;-76
2022/05/13 01:33:06;;;;;;;0.40;0.40;;;11.00;99.90;;;;;;5073608;28;20508;-77
2022/05/13 01:35:32;;;;;;;0.40;0.40;;;11.00;99.90;;;;;;5073743;28;20079;-76
2022/05/13 01:37:57;;;;;;;1.75;1.05;;;11.00;99.90;;;;;;5073718;28;20050;-77
2022/05/13 01:40:23;;;;;;;0.77;0.77;;;11.00;99.90;;;;;;5073523;28;20130;-77
2022/05/13 01:42:49;;;;;;;0.40;0.40;;;11.00;99.90;;;;;;5073890;28;20043;-76
2022/05/13 01:45:15;;;;;;;0.40;0.40;;;11.10;99.90;;;;;;5073651;28;20377;-76
2022/05/13 01:47:41;;;;;;;0.40;0.40;;;11.10;99.90;;;;;;5073950;28;20174;-76
2022/05/13 01:50:08;;;;;;;0.40;0.40;;;11.10;99.90;;;;;;5073515;28;20041;-76
2022/05/13 01:52:33;;;;;;;0.40;0.40;;;11.10;99.90;;;;;;5073561;28;20389;-76
2022/05/13 01:54:59;;;;;;;0.40;0.40;;;11.20;99.90;;;;;;5073658;28;20040;-76
2022/05/13 01:57:24;;;;;;;0.30;0.30;;;11.20;99.90;;;;;;5073675;28;20111;-76
2022/05/13 01:59:50;;;;;;;0.30;0.30;;;11.20;99.90;;;;;;5073519;28;20047;-76
2022/05/13 02:02:16;;;;;;;0.40;0.40;;;11.20;99.90;;;;;;5073813;28;20040;-76
2022/05/13 02:04:41;;;;;;;0.40;0.40;;;11.20;99.90;;;;;;5072590;28;20155;-76
2022/05/13 02:07:07;;;;;;;0.40;0.40;;;11.20;99.90;;;;;;5073590;28;20049;-77
2022/05/13 02:09:33;;;;;;;2.17;1.10;;;11.30;99.90;;;;;;5073693;28;20049;-77
2022/05/13 02:11:58;;;;;;;0.40;0.40;;;11.30;99.90;;;;;;5073431;28;20045;-76
2022/05/13 02:14:24;;;;;;;0.40;0.40;;;11.30;99.90;;;;;;5073334;28;20068;-76
2022/05/13 02:16:49;;;;;;;0.65;0.65;;;11.20;99.90;;;;;;5073833;28;20152;-76
2022/05/13 02:19:17;;;;;;;0.40;0.40;;;11.30;99.90;;;;;;5073347;28;20080;-77
2022/05/13 02:21:42;;;;;;;0.40;0.40;;;11.30;99.90;;;;;;5072982;28;20516;-77
2022/05/13 02:24:08;;;;;;;0.40;0.40;;;11.30;99.90;;;;;;5073274;28;20048;-77
2022/05/13 02:26:33;;;;;;;0.40;0.40;;;11.40;99.90;;;;;;5073198;28;20083;-77
2022/05/13 02:29:01;;;;;;;0.40;0.40;;;11.30;99.90;;;;;;5073237;28;20044;-77
2022/05/13 02:31:28;;;;;;;0.40;0.40;;;11.30;99.90;;;;;;5073112;28;20397;-77
2022/05/13 02:33:54;;;;;;;0.40;0.40;;;11.30;99.90;;;;;;5073135;28;20040;-77
2022/05/13 02:36:20;;;;;;;0.40;0.40;;;11.30;99.90;;;;;;5073135;28;20090;-77
2022/05/13 02:38:46;;;;;;;0.40;0.40;;;11.20;99.90;;;;;;5073350;28;20040;-77
2022/05/13 02:41:11;;;;;;;2.97;0.98;;;11.20;99.90;;;;;;5073030;28;20048;-77
2022/05/13 02:43:48;;;;;;;0.30;0.30;;;11.20;99.90;;;;;;5073131;28;20075;-77
2022/05/13 02:46:18;;;;;;;0.40;0.40;;;11.20;99.90;;;;;;5072536;28;20060;-77
2022/05/13 02:48:44;;;;;;;0.40;0.40;;;11.20;99.90;;;;;;5072967;28;20047;-77
2022/05/13 02:51:11;;;;;;;0.40;0.40;;;11.10;99.90;;;;;;5072968;28;20090;-77
2022/05/13 02:53:37;;;;;;;0.40;0.40;;;11.10;99.90;;;;;;5075723;28;20040;-77
2022/05/13 02:56:03;;;;;;;0.60;0.60;;;11.00;99.90;;;;;;5076529;28;20039;-77
2022/05/13 02:58:28;;;;;;;0.40;0.40;;;11.00;99.90;;;;;;5076380;28;20395;-77
2022/05/13 03:00:54;;;;;;;0.40;0.40;;;10.90;99.90;;;;;;5076513;28;20044;-77
2022/05/13 03:03:19;;;;;;;0.40;0.40;;;11.00;99.90;;;;;;5076514;28;20084;-77
2022/05/13 03:05:45;;;;;;;0.73;0.73;;;10.90;99.90;;;;;;5076435;28;20045;-76
2022/05/13 03:08:11;;;;;;;0.40;0.40;;;10.90;99.90;;;;;;5076570;28;20052;-77
2022/05/13 03:10:38;;;;;;;0.40;0.40;;;10.90;99.90;;;;;;5076344;28;20048;-77
2022/05/13 03:13:06;;;;;;;0.40;0.40;;;10.80;99.90;;;;;;5076148;28;20044;-77
2022/05/13 03:15:32;;;;;;;0.40;0.40;;;10.80;99.90;;;;;;5076229;28;20044;-76
2022/05/13 03:17:58;;;;;;;0.40;0.40;;;10.70;99.90;;;;;;5076173;28;20049;-77
2022/05/13 03:20:25;;;;;;;0.40;0.40;;;10.60;99.90;;;;;;5076243;28;20047;-77
2022/05/13 03:22:51;;;;;;;0.40;0.40;;;10.70;99.90;;;;;;5076339;28;20128;-77
2022/05/13 03:25:18;;;;;;;0.40;0.40;;;10.60;99.90;;;;;;5076045;28;20041;-77
2022/05/13 03:27:44;;;;;;;;;;;10.50;99.90;;;;;;5076312;28;20075;-77
2022/05/13 03:30:13;;;;;;;0.40;0.40;;;10.60;99.90;;;;;;5076015;28;20008;-77
2022/05/13 03:32:38;;;;;;;0.55;0.55;;;10.50;99.90;;;;;;5075931;28;20084;-77
2022/05/13 03:35:06;;;;;;;0.40;0.40;;;10.50;99.90;;;;;;5075960;28;20079;-77
2022/05/13 03:37:32;;;;;;;0.40;0.40;;;10.50;99.90;;;;;;5075760;28;20438;-76
2022/05/13 03:39:57;;;;;;;0.40;0.40;;;10.50;99.90;;;;;;5075832;28;20101;-76
2022/05/13 03:42:23;;;;;;;0.40;0.40;;;10.50;99.90;;;;;;5075743;28;20482;-76
2022/05/13 03:44:50;;;;;;;0.82;0.82;;;10.50;99.90;;;;;;5075447;28;20052;-76
2022/05/13 03:47:15;;;;;;;0.40;0.40;;;10.50;99.90;;;;;;5075671;28;20048;-76
2022/05/13 03:49:42;;;;;;;0.40;0.40;;;10.50;99.90;;;;;;5075707;28;20399;-77
2022/05/13 03:52:08;;;;;;;0.40;0.40;;;10.60;99.90;;;;;;5075424;28;20052;-76
2022/05/13 03:54:34;;;;;;;0.40;0.40;;;10.60;99.90;;;;;;5075627;28;20099;-76
2022/05/13 03:57:00;;;;;;;0.40;0.40;;;10.60;99.90;;;;;;5075282;28;20079;-76
2022/05/13 03:59:26;;;;;;;0.40;0.40;;;10.60;99.90;;;;;;5075407;28;20417;-77
2022/05/13 04:01:52;;;;;;;0.40;0.40;;;10.60;99.90;;;;;;5075397;28;20049;-77
2022/05/13 04:04:21;;;;;;;1.98;0.95;;;10.60;99.90;;;;;;5075322;28;20442;-76
2022/05/13 04:09:32;;;;;;;0.40;0.40;;;10.60;99.90;;;;;;5074587;28;20048;-76
2022/05/13 04:17:26;;;;;;;0.40;0.40;;;10.70;99.90;;;;;;5074922;28;20048;-74
2022/05/13 04:19:52;;;;;;;0.40;0.40;;;10.70;99.90;;;;;;5071487;28;20492;-74
2022/05/13 04:22:17;;;;;;;0.40;0.40;;;10.70;99.90;;;;;;5072406;28;20105;-75
2022/05/13 04:24:43;;;;;;;0.40;0.40;;;10.70;99.90;;;;;;5056719;28;20138;-77
2022/05/13 04:27:08;;;;;;;0.40;0.40;;;10.70;99.90;;;;;;5073608;28;20405;-76
2022/05/13 04:29:36;;;;;;;0.40;0.40;;;10.70;99.90;;;;;;5073651;28;20101;-76
2022/05/13 04:32:02;;;;;;;0.40;0.40;;;10.80;99.90;;;;;;5073771;28;20052;-74
2022/05/13 04:34:28;;;;;;;0.40;0.40;;;10.80;99.90;;;;;;5073696;28;20472;-74
2022/05/13 04:36:54;;;;;;;1.10;1.00;;;10.80;99.90;;;;;;5073030;28;20469;-75
2022/05/13 04:39:19;;;;;;;0.40;0.40;;;10.80;99.90;;;;;;5074178;28;20044;-74
2022/05/13 04:44:29;;;;;;;0.40;0.40;;;10.90;99.90;;;;;;5074173;28;20084;-75
2022/05/13 04:46:54;;;;;;;0.40;0.40;;;10.90;99.90;;;;;;5074097;28;20079;-74
2022/05/13 04:49:20;;;;;;;0.68;0.68;;;10.90;99.90;;;;;;5074172;28;20119;-75
2022/05/13 04:51:45;;;;;;;0.40;0.40;;;10.90;99.90;;;;;;5073580;28;20055;-75
2022/05/13 04:54:11;;;;;;;0.40;0.40;;;10.90;99.90;;;;;;5074112;28;20044;-75
2022/05/13 04:56:37;;;;;;;0.40;0.40;;;11.00;99.90;;;;;;5073965;28;20036;-75
2022/05/13 04:59:03;;;;;;;0.68;0.68;;;11.00;99.90;;;;;;5072626;28;20090;-75
2022/05/13 05:01:29;;;;;;;0.40;0.40;;;11.00;99.90;;;;;;5073776;28;20044;-76
2022/05/13 05:03:55;;;;;;;0.35;0.35;;;11.00;99.90;;;;;;5072314;28;20447;-76
2022/05/13 05:06:22;;;;;;;0.40;0.40;;;11.00;99.90;;;;;;5073656;28;20045;-76
2022/05/13 05:08:48;;;;;;;0.40;0.40;;;11.10;99.90;;;;;;5074061;28;20114;-77
2022/05/13 05:11:15;;;;;;;0.40;0.40;;;11.10;99.90;;;;;;5074402;28;20052;-78
2022/05/13 05:13:43;;;;;;;1.02;1.02;;;11.20;99.90;;;;;;5073971;28;20342;-77
2022/05/13 05:16:09;;;;;;;0.30;0.30;;;11.20;99.90;;;;;;5072448;28;20040;-76
2022/05/13 05:18:36;;;;;;;0.40;0.40;;;11.20;99.90;;;;;;5073845;28;20084;-77
2022/05/13 05:21:03;;;;;;;;;;;11.30;99.90;;;;;;5074328;28;20287;-76
2022/05/13 05:23:31;;;;;;;9.40;3.92;;;11.40;99.90;;;;;;5073805;28;19920;-77
2022/05/13 05:25:57;;;;;;;0.40;0.40;;;11.40;99.90;;;;;;5074047;28;20036;-77
2022/05/13 05:28:23;;;;;;;0.40;0.40;;;11.50;99.90;;;;;;5073959;28;20473;-77
2022/05/13 05:30:51;;;;;;;0.63;0.63;;;11.50;99.90;;;;;;5073937;28;20374;-79
2022/05/13 05:33:17;;;;;;;0.40;0.40;;;11.50;99.90;;;;;;5073675;28;20049;-79
2022/05/13 05:35:42;;;;;;;0.40;0.40;;;11.60;99.90;;;;;;5073821;28;20189;-78
2022/05/13 05:38:08;;;;;;;0.40;0.40;;;11.60;99.90;;;;;;5073675;28;20045;-78
2022/05/13 05:40:35;;;;;;;2.30;1.23;;;11.70;99.90;;;;;;5073765;28;20044;-79
2022/05/13 05:43:06;;;;;;;0.40;0.40;;;11.70;99.90;;;;;;5073727;28;20773;-78
2022/05/13 05:45:32;;;;;;;0.40;0.40;;;11.90;99.90;;;;;;5073521;28;20053;-77
2022/05/13 05:47:58;;;;;;;0.40;0.40;;;12.00;99.90;;;;;;5072532;28;20104;-77
2022/05/13 05:50:24;;;;;;;0.40;0.40;;;12.10;99.90;;;;;;5073975;28;20055;-77
2022/05/13 05:52:50;;;;;;;0.40;0.40;;;12.10;99.90;;;;;;5073574;28;20044;-78
2022/05/13 05:57:59;;;;;;;0.32;0.32;;;12.30;99.90;;;;;;5073658;28;20049;-76
2022/05/13 06:00:26;;;;;;;0.30;0.30;;;12.30;99.90;;;;;;5073943;28;20040;-76
2022/05/13 06:02:52;;;;;;;0.40;0.40;;;12.30;99.90;;;;;;5073311;28;20041;-77
2022/05/13 06:05:18;;;;;;;0.40;0.40;;;12.30;99.90;;;;;;5073628;28;20052;-76
2022/05/13 06:07:45;;;;;;;0.50;0.50;;;12.40;99.90;;;;;;5073759;28;20048;-77
2022/05/13 06:10:12;;;;;;;0.50;0.50;;;12.40;99.90;;;;;;5073179;28;20119;-77
2022/05/13 06:12:38;;;;;;;;;;;12.60;99.90;;;;;;5073700;28;20059;-78
2022/05/13 06:15:04;;;;;;;0.43;0.43;;;12.70;99.90;;;;;;5072093;28;19920;-77
2022/05/13 06:17:29;;;;;;;0.63;0.63;;;12.90;99.90;;;;;;5073247;28;20454;-76
2022/05/13 06:19:55;;;;;;;0.40;0.40;;;13.00;99.90;;;;;;5073294;28;20041;-76
2022/05/13 06:22:21;;;;;;;0.40;0.40;;;13.10;99.90;;;;;;5072312;28;20046;-75
2022/05/13 06:24:47;;;;;;;0.40;0.40;;;13.20;99.90;;;;;;5073028;28;20052;-75
2022/05/13 06:27:13;;;;;;;0.73;0.73;;;13.40;99.90;;;;;;5073778;28;20048;-75
2022/05/13 06:29:38;;;;;;;0.85;0.55;;;13.60;99.90;;;;;;5077047;28;20542;-80
2022/05/13 06:32:04;;;;;;;0.40;0.40;;;14.00;99.90;;;;;;5076472;28;20392;-81
2022/05/13 06:34:30;;;;;;;0.30;0.30;;;14.20;99.90;;;;;;5075697;28;20097;-76
2022/05/13 06:36:55;;;;;;;0.40;0.40;;;14.20;99.90;;;;;;5076816;28;20044;-76
2022/05/13 06:39:21;;;;;;;0.50;0.50;;;14.30;99.90;;;;;;5076912;28;20476;-76
2022/05/13 06:41:47;;;;;;;0.35;0.35;;;14.50;99.90;;;;;;5076866;28;20127;-76
2022/05/13 06:44:15;;;;;;;0.30;0.30;;;14.50;99.90;;;;;;5076495;28;20044;-77
2022/05/13 06:46:41;;;;;;;0.32;0.32;;;14.70;99.90;;;;;;5076629;28;20131;-76
2022/05/13 06:49:08;;;;;;;0.40;0.40;;;14.70;99.90;;;;;;5076839;28;20136;-76
2022/05/13 06:51:34;;;;;;;0.40;0.40;;;14.80;99.90;;;;;;5076825;28;20416;-76
2022/05/13 06:54:07;;;;;;;0.38;0.38;;;14.80;99.90;;;;;;5076178;28;20147;-76
2022/05/13 06:56:36;;;;;;;0.30;0.30;;;14.80;99.90;;;;;;5076555;28;20104;-76
2022/05/13 06:59:03;;;;;;;0.40;0.40;;;14.70;99.90;;;;;;5058783;28;20337;-79
2022/05/13 07:01:29;;;;;;;0.40;0.40;;;14.70;99.90;;;;;;5076456;28;20045;-78
2022/05/13 07:03:54;;;;;;;0.47;0.47;;;14.70;99.90;;;;;;5075635;28;20037;-77
2022/05/13 07:06:21;;;;;;;0.40;0.40;;;14.70;99.90;;;;;;5076320;28;20083;-78
2022/05/13 07:08:47;;;;;;;0.40;0.40;;;14.70;99.90;;;;;;5076395;28;20048;-79
2022/05/13 07:11:13;;;;;;;0.30;0.30;;;14.70;99.90;;;;;;5076301;28;20623;-77
2022/05/13 07:13:39;;;;;;;0.97;0.50;;;14.70;99.90;;;;;;5075915;28;20126;-77
2022/05/13 07:16:05;;;;;;;0.30;0.30;;;14.60;99.90;;;;;;5076354;28;20441;-77
2022/05/13 07:18:30;;;;;;;0.40;0.40;;;14.70;99.90;;;;;;5075777;28;20053;-77
2022/05/13 07:20:56;;;;;;;0.30;0.30;;;14.70;99.90;;;;;;5075917;28;20071;-76
2022/05/13 07:23:22;;;;;;;0.40;0.40;;;14.80;99.90;;;;;;5076168;28;20064;-75
2022/05/13 07:25:47;;;;;;;0.40;0.40;;;14.80;99.90;;;;;;5075995;28;20495;-73
2022/05/13 07:28:13;;;;;;;0.30;0.30;;;14.80;99.90;;;;;;5075982;28;20048;-78
2022/05/13 07:30:39;;;;;;;0.35;0.35;;;15.10;99.90;;;;;;5075255;28;20127;-76
2022/05/13 07:33:05;;;;;;;0.43;0.43;;;14.90;99.90;;;;;;5075828;28;20119;-76
2022/05/13 07:35:31;;;;;;;0.40;0.40;;;15.00;99.90;;;;;;5075934;28;20036;-77
2022/05/13 07:37:57;;;;;;;0.30;0.30;;;14.90;99.90;;;;;;5075488;28;20056;-75
2022/05/13 07:43:06;;;;;;;0.30;0.30;;;15.00;99.90;;;;;;5076332;28;20307;-78
2022/05/13 07:45:34;;;;;;;0.30;0.30;;;15.30;99.90;;;;;;5075911;28;20507;-76
2022/05/13 07:48:01;;;;;;;0.70;0.70;;;15.50;99.90;;;;;;5075609;28;20063;-77
2022/05/13 07:50:28;;;;;;;0.40;0.40;;;15.80;99.90;;;;;;5075635;28;20116;-76
2022/05/13 07:52:54;;;;;;;0.30;0.30;;;16.20;99.90;;;;;;5075563;28;20040;-76
2022/05/13 07:55:19;;;;;;;0.30;0.30;;;16.60;99.90;;;;;;5075505;28;20048;-76
2022/05/13 07:57:46;;;;;;;0.40;0.40;;;16.50;99.90;;;;;;5075512;28;20412;-77
2022/05/13 08:00:27;;;;;;;0.75;0.75;;;16.50;99.90;;;;;;5075477;28;20045;-76
2022/05/13 08:02:57;;;;;;;0.30;0.30;;;16.50;99.90;;;;;;5075362;28;20080;-75
2022/05/13 08:05:26;;;;;;;0.30;0.30;;;16.20;99.90;;;;;;5075428;28;20040;-79
2022/05/13 08:08:04;;;;;;;0.30;0.30;;;16.20;99.90;;;;;;5075556;28;20049;-79
2022/05/13 08:10:31;;;;;;;0.65;0.65;;;16.00;99.90;;;;;;5075661;28;20047;-76
2022/05/13 08:12:56;;;;;;;0.30;0.30;;;15.80;99.90;;;;;;5075130;28;20036;-78
2022/05/13 08:15:22;;;;;;;0.30;0.30;;;15.70;99.90;;;;;;5074956;28;20055;-78
2022/05/13 08:17:47;;;;;;;0.30;0.30;;;15.70;99.90;;;;;;5074827;28;20060;-74
2022/05/13 08:20:13;;;;;;;0.35;0.35;;;15.70;99.90;;;;;;5075076;28;20133;-75
2022/05/13 08:22:38;;;;;;;0.30;0.30;;;15.80;99.90;;;;;;5074789;28;20051;-74
2022/05/13 08:25:04;;;;;;;0.30;0.30;;;15.90;99.90;;;;;;5074489;28;20047;-80
2022/05/13 08:27:33;;;;;;;0.30;0.30;;;15.90;99.90;;;;;;5074794;28;20053;-73
2022/05/13 08:30:01;;;;;;;0.52;0.50;;;16.10;99.90;;;;;;5074842;28;20084;-77
2022/05/13 08:32:27;;;;;;;0.30;0.30;;;16.30;99.90;;;;;;5075002;28;20049;-74
2022/05/13 08:34:53;;;;;;;0.30;0.30;;;16.50;99.90;;;;;;5074742;28;20128;-74
2022/05/13 08:37:18;;;;;;;0.30;0.30;;;16.60;99.90;;;;;;5074793;28;20123;-74
2022/05/13 08:39:44;;;;;;;0.50;0.37;;;16.60;99.90;;;;;;5075078;28;20091;-74
2022/05/13 08:42:21;;;;;;;1.03;0.40;;;16.60;99.90;;;;;;5074976;28;20040;-75
2022/05/13 08:44:47;;;;;;;0.30;0.30;;;16.70;99.90;;;;;;5073707;28;20056;-75
2022/05/13 08:47:20;;;;;;;0.30;0.30;;;16.60;99.90;;;;;;5074180;28;20512;-75
2022/05/13 08:49:55;;;;;;;0.30;0.30;;;16.40;99.90;;;;;;5073901;28;20131;-75
2022/05/13 08:53:08;;;;;;;0.30;0.30;;;16.50;99.90;;;;;;5074861;28;20041;-75
2022/05/13 08:55:46;;;;;;;0.30;0.30;;;16.40;99.90;;;;;;5074375;28;20058;-75
2022/05/13 08:58:15;;;;;;;;;;;16.40;99.90;;;;;;5074736;28;20080;-75
2022/05/13 09:00:50;;;;;;;0.30;0.30;;;16.50;99.90;;;;;;5074819;28;19921;-75
2022/05/13 09:03:25;;;;;;;0.30;0.30;;;16.60;99.90;;;;;;5074227;28;20131;-75
2022/05/13 09:06:02;;;;;;;0.50;0.50;;;16.90;99.90;;;;;;5074350;28;20047;-75
2022/05/13 09:08:28;;;;;;;0.30;0.30;;;16.80;99.90;;;;;;5074152;28;20059;-75
2022/05/13 09:11:06;;;;;;;0.30;0.30;;;17.10;99.90;;;;;;5074816;28;20427;-75
2022/05/13 09:13:47;;;;;;;0.85;0.85;;;17.20;99.90;;;;;;5072947;28;20102;-76
2022/05/13 09:16:18;;;;;;;0.30;0.30;;;17.40;99.90;;;;;;5074210;28;20033;-75
2022/05/13 09:19:03;;;;;;;0.30;0.30;;;17.20;99.90;;;;;;5073190;28;20052;-76
2022/05/13 09:21:29;;;;;;;0.30;0.30;;;17.00;99.90;;;;;;5074440;28;20044;-75
2022/05/13 09:23:55;;;;;;;0.30;0.30;;;16.70;99.90;;;;;;5073954;28;20040;-75
2022/05/13 09:26:26;;;;;;;0.33;0.33;;;16.60;99.90;;;;;;5073827;28;20094;-75
2022/05/13 09:29:14;;;;;;;0.30;0.30;;;16.70;99.90;;;;;;5073891;28;20052;-75
2022/05/13 09:32:02;;;;;;;0.30;0.30;;;16.90;99.90;;;;;;5073808;28;20106;-76
2022/05/13 09:34:36;;;;;;;0.20;0.20;;;17.30;99.90;;;;;;5073249;28;20455;-76
2022/05/13 09:37:19;;;;;;;0.30;0.30;;;17.70;99.90;;;;;;5073750;28;20066;-76
2022/05/13 09:39:46;;;;;;;1.13;0.68;;;17.80;99.90;;;;;;5073701;28;20044;-76
2022/05/13 09:42:35;;;;;;;0.30;0.30;;;17.90;99.90;;;;;;5074141;28;20454;-76
2022/05/13 09:45:30;;;;;;;0.30;0.30;;;17.70;99.90;;;;;;5073713;28;20135;-76
2022/05/13 09:47:58;;;;;;;0.38;0.38;;;17.70;99.90;;;;;;5073698;28;20044;-74
2022/05/13 09:50:34;;;;;;;0.30;0.30;;;17.80;99.90;;;;;;5073509;28;20492;-75
2022/05/13 09:53:24;;;;;;;0.20;0.20;;;18.00;99.90;;;;;;5073949;28;20045;-75
2022/05/13 09:55:52;;;;;;;0.30;0.30;;;18.10;99.90;;;;;;5073513;28;20504;-75
2022/05/13 09:58:28;;;;;;;3.50;0.68;;;18.10;99.90;;;;;;5073426;28;20052;-75
2022/05/13 10:00:58;;;;;;;0.30;0.30;;;18.10;99.90;;;;;;5073519;28;20534;-75
2022/05/13 10:03:29;;;;;;;2.40;1.27;;;17.90;99.90;;;;;;5078312;28;20044;-74
2022/05/13 10:06:17;;;;;;;0.20;0.20;;;17.60;99.90;;;;;;5077844;28;20054;-75
2022/05/13 10:08:51;;;;;;;0.30;0.30;;;17.50;99.90;;;;;;5077762;28;20059;-76
2022/05/13 10:14:22;;;;;;;0.30;0.30;;;17.50;99.90;;;;;;5077840;28;20053;-76
2022/05/13 10:16:50;;;;;;;0.20;0.20;;;17.30;99.90;;;;;;5077425;28;20047;-76
2022/05/13 10:19:21;;;;;;;0.30;0.30;;;17.00;99.90;;;;;;5077356;28;20052;-76
2022/05/13 10:21:58;;;;;;;0.30;0.30;;;16.80;99.90;;;;;;5077230;28;20052;-76
2022/05/13 10:24:33;;;;;;;0.30;0.30;;;16.70;99.90;;;;;;5077388;28;20063;-76
2022/05/13 10:27:01;;;;;;;0.30;0.30;;;16.80;99.90;;;;;;5077203;28;20051;-76
2022/05/13 10:29:37;;;;;;;0.47;0.43;;;16.90;99.90;;;;;;5077102;28;20118;-76
2022/05/13 10:32:13;;;;;;;0.30;0.30;;;16.90;99.90;;;;;;5077082;28;20134;-76
2022/05/13 10:34:50;;;;;;;0.30;0.30;;;17.20;99.90;;;;;;5076271;28;20381;-76
2022/05/13 10:37:39;;;;;;;0.30;0.30;;;17.60;99.90;;;;;;5076963;28;20128;-77
2022/05/13 10:40:10;;;;;;;0.68;0.63;;;18.00;99.90;;;;;;5076787;28;20048;-80
2022/05/13 10:43:02;;;;;;;0.30;0.30;;;18.00;99.90;;;;;;5076546;28;20447;-75
2022/05/13 10:45:30;;;;;;;0.30;0.30;;;18.40;99.90;;;;;;5070763;28;20079;-79
2022/05/13 10:48:17;;;;;;;0.30;0.30;;;18.30;99.90;;;;;;5075825;28;20075;-78
2022/05/13 10:50:54;;;;;;;0.30;0.30;;;18.50;99.90;;;;;;5076751;28;20048;-78
2022/05/13 10:53:51;;;;;;;0.20;0.20;;;18.40;99.90;;;;;;5076767;28;20045;-81
2022/05/13 10:56:24;;;;;;;0.20;0.20;;;18.30;99.90;;;;;;5076591;28;20169;-79
2022/05/13 10:59:20;;;;;;;0.30;0.30;;;18.10;99.90;;;;;;5076547;28;20056;-77
2022/05/13 11:02:04;;;;;;;0.30;0.30;;;18.00;99.90;;;;;;5076581;28;20469;-77
2022/05/13 11:04:50;;;;;;;0.65;0.50;;;18.10;99.90;;;;;;5076573;28;20393;-81
2022/05/13 11:07:34;;;;;;;0.30;0.30;;;18.10;99.90;;;;;;5076185;28;20500;-80
2022/05/13 11:10:35;;;;;;;0.30;0.30;;;18.10;99.90;;;;;;5075423;28;20396;-79
2022/05/13 11:13:24;;;;;;;0.35;0.35;;;18.30;99.90;;;;;;5059181;28;20061;-81
2022/05/13 11:15:57;;;;;;;0.20;0.20;;;18.30;99.90;;;;;;5076584;28;20464;-79
2022/05/13 11:18:47;;;;;;;0.30;0.30;;;18.30;99.90;;;;;;5076250;28;20045;-77
2022/05/13 11:21:29;;;;;;;0.30;0.30;;;18.20;99.90;;;;;;5076554;28;20052;-80
2022/05/13 11:27:14;;;;;;;0.30;0.30;;;18.50;99.90;;;;;;5076686;28;20049;-83
2022/05/13 11:29:52;;;;;;;0.30;0.30;;;18.70;99.60;;;;;;5074910;28;20049;-81
2022/05/13 11:33:00;;;;;;;0.30;0.30;;;18.80;99.70;;;;;;5074690;28;20123;-84
2022/05/13 11:35:43;;;;;;;0.20;0.20;;;18.90;99.90;;;;;;5033632;28;20057;-83
2022/05/13 11:38:19;;;;;;;1.95;0.80;;;18.70;99.20;;;;;;5017690;28;20460;-83
2022/05/13 11:40:56;;;;;;;0.30;0.30;;;18.60;99.60;;;;;;5055442;28;20056;-81
2022/05/13 11:43:54;;;;;;;0.45;0.45;;;18.30;99.80;;;;;;5075903;28;20592;-81
2022/05/13 11:46:59;;;;;;;0.30;0.30;;;18.20;99.90;;;;;;5074658;28;20059;-81
2022/05/13 11:49:34;;;;;;;0.30;0.30;;;18.00;99.90;;;;;;5074329;28;20067;-80
2022/05/13 11:52:27;;;;;;;0.35;0.35;;;18.20;99.90;;;;;;5075741;28;20055;-80
2022/05/13 11:55:14;;;;;;;0.20;0.20;;;18.50;99.60;;;;;;5074959;28;20040;-80
2022/05/13 11:57:42;;;;;;;0.20;0.20;;;18.60;98.50;;;;;;5073631;28;20048;-77
2022/05/13 12:00:37;;;;;;;1.27;1.15;;;18.60;99.00;;;;;;5074959;28;20052;-80
2022/05/13 12:03:09;;;;;;;0.20;0.20;;;18.60;98.50;;;;;;5075695;28;20123;-79
2022/05/13 12:06:15;;;;;;;0.40;0.40;;;18.80;99.20;;;;;;5074076;28;20484;-81
2022/05/13 12:08:49;;;;;;;0.30;0.30;;;18.90;98.80;;;;;;5075206;28;20094;-83
2022/05/13 12:11:43;;;;;;;1.27;0.47;;;18.90;98.80;;;;;;5056447;28;20400;-83
2022/05/13 12:14:19;;;;;;;0.57;0.57;;;18.70;98.50;;;;;;5073925;28;20549;-81
2022/05/13 12:17:11;;;;;;;0.20;0.20;;;18.70;99.00;;;;;;5074942;28;20041;-82
2022/05/13 12:19:53;;;;;;;0.90;0.40;;;18.70;97.50;;;;;;5073979;28;20078;-79
2022/05/13 12:22:42;;;;;;;0.28;0.28;;;18.60;97.20;;;;;;5073993;28;20036;-82
2022/05/13 12:25:12;;;;;;;0.20;0.20;;;18.70;97.40;;;;;;5066436;28;20048;-80
2022/05/13 12:28:00;;;;;;;0.30;0.30;;;18.60;98.00;;;;;;5073841;28;20048;-80
2022/05/13 12:30:36;;;;;;;0.20;0.20;;;18.60;98.00;;;;;;5057298;28;20052;-82
2022/05/13 12:33:17;;;;;;;0.32;0.32;;;18.60;98.40;;;;;;5073702;28;20102;-82
2022/05/13 12:38:31;;;;;;;0.20;0.20;;;18.50;98.10;;;;;;5074040;28;20060;-82
2022/05/13 12:41:09;;;;;;;0.30;0.30;;;18.40;98.40;;;;;;5074743;28;20123;-82
2022/05/13 12:43:46;;;;;;;0.30;0.30;;;18.30;98.20;;;;;;5074646;28;20044;-83
2022/05/13 12:46:16;;;;;;;0.30;0.30;;;18.20;97.90;;;;;;5056544;28;20052;-83
2022/05/13 12:49:02;;;;;;;0.30;0.30;;;18.00;98.10;;;;;;5073225;28;20049;-79
2022/05/13 12:51:58;;;;;;;0.35;0.35;;;18.20;99.10;;;;;;5074330;28;20154;-79
2022/05/13 12:54:24;;;;;;;0.30;0.30;;;18.60;98.70;;;;;;5072821;28;20055;-79
2022/05/13 12:56:58;;;;;;;0.43;0.30;;;18.70;97.80;;;;;;5072760;28;20040;-78
2022/05/13 12:59:33;;;;;;;0.30;0.30;;;18.50;97.60;;;;;;5074231;28;20053;-79
2022/05/13 13:02:01;;;;;;;0.35;0.35;;;18.40;97.50;;;;;;5074313;28;20128;-78
2022/05/13 13:04:31;;;;;;;0.30;0.30;;;18.40;98.00;;;;;;5074149;28;20067;-75
2022/05/13 13:07:09;;;;;;;0.20;0.20;;;18.60;98.00;;;;;;5073973;28;20472;-76
2022/05/13 13:09:44;;;;;;;0.20;0.20;;;18.50;97.20;;;;;;5073813;28;20110;-75
2022/05/13 13:12:12;;;;;;;0.25;0.25;;;18.70;97.70;;;;;;5074254;28;20044;-76
2022/05/13 13:14:55;;;;;;;0.20;0.20;;;18.90;97.20;;;;;;5073862;28;20503;-81
2022/05/13 13:17:32;;;;;;;0.20;0.20;;;19.00;97.30;;;;;;5073966;28;20598;-78
2022/05/13 13:20:01;;;;;;;0.30;0.30;;;19.20;97.00;;;;;;5074548;28;20407;-81
2022/05/13 13:22:37;;;;;;;0.30;0.30;;;19.30;96.00;;;;;;5074290;28;20080;-79
2022/05/13 13:25:11;;;;;;;0.30;0.30;;;19.30;95.60;;;;;;5073822;28;20044;-79
2022/05/13 13:27:38;;;;;;;0.40;0.40;;;19.30;96.20;;;;;;5073951;28;20079;-76
2022/05/13 13:30:04;;;;;;;0.20;0.20;;;19.10;95.60;;;;;;5072589;28;20048;-77
2022/05/13 13:32:29;;;;;;;0.20;0.20;;;19.00;95.60;;;;;;5073806;28;20101;-83